Time;durP1;ratioP1;P1;durP2;ratioP2;P2;SDS_P1;SDS_P2;PMS_P1;PMS_P2;Temp;Humidity;BMP_temperature;BMP_pressure;BME280_temperature;BME280_humidity;BME280_pressure;Samples;Min_cycle;Max_cycle;Signal;HPM_P1;HPM_P2
2021/12/16 00:07:05;;;;;;;132.18;49.83;;;;;;;9.60;100.00;103319.53;4978697;28;20145;-71
2021/12/16 00:09:43;;;;;;;144.27;53.83;;;;;;;9.62;100.00;103325.53;4978605;28;20124;-71
2021/12/16 00:29:32;;;;;;;133.45;50.25;;;;;;;9.67;100.00;103313.94;4978801;28;20093;-72
2021/12/16 00:34:21;;;;;;;127.30;50.13;;;;;;;9.69;100.00;103314.56;4978584;28;20053;-72
2021/12/16 00:36:47;;;;;;;126.05;50.45;;;;;;;9.66;100.00;103315.03;4960168;28;20057;-72
2021/12/16 00:39:22;;;;;;;143.07;55.10;;;;;;;9.61;100.00;103326.63;4962151;28;20146;-72
2021/12/16 00:41:52;;;;;;;127.82;49.20;;;;;;;9.61;100.00;103314.91;4978542;28;20129;-71
2021/12/16 00:44:46;;;;;;;136.82;52.03;;;;;;;9.57;100.00;103316.41;4961698;28;20046;-71
2021/12/16 00:49:39;;;;;;;124.82;49.58;;;;;;;9.41;100.00;103324.22;4990314;28;20069;-71
2021/12/16 00:54:09;;;;;;;143.50;53.92;;;;;;;9.44;100.00;103322.94;4995111;28;20120;-71
2021/12/16 00:55:13;;;;;;;128.90;49.60;;;;;;;9.43;100.00;103327.56;4995007;28;20053;-71
2021/12/16 00:57:41;;;;;;;122.30;49.33;;;;;;;9.53;100.00;103325.06;4997417;28;20071;-71
2021/12/16 01:00:12;;;;;;;125.60;51.17;;;;;;;9.58;100.00;103316.19;4979042;28;20041;-72
2021/12/16 01:02:53;;;;;;;128.50;51.25;;;;;;;9.50;100.00;103325.53;4978779;28;20034;-70
2021/12/16 01:46:34;;;;;;;138.52;53.22;;;;;;;9.22;100.00;103368.94;4980607;28;20148;-71
2021/12/16 01:49:23;;;;;;;138.45;54.58;;;;;;;9.24;100.00;103364.09;4983566;28;20049;-70
2021/12/16 01:56:54;;;;;;;136.10;54.70;;;;;;;9.28;100.00;103362.59;4968118;28;20042;-70
2021/12/16 01:59:22;;;;;;;147.27;52.78;;;;;;;9.25;100.00;103360.28;4983402;28;20034;-71
2021/12/16 02:01:48;;;;;;;144.38;53.33;;;;;;;9.37;100.00;103368.53;4986789;28;20037;-71
2021/12/16 02:04:30;;;;;;;143.68;53.05;;;;;;;9.35;100.00;103367.91;4984308;28;20545;-71
2021/12/16 02:07:08;;;;;;;156.85;55.72;;;;;;;9.36;100.00;103366.84;4984610;28;20092;-70
2021/12/16 02:09:38;;;;;;;156.73;54.20;;;;;;;9.36;100.00;103364.13;5001644;28;20049;-71
2021/12/16 02:34:04;;;;;;;157.10;55.60;;;;;;;9.38;100.00;103378.34;4982925;28;20045;-71
2021/12/16 02:36:31;;;;;;;165.93;57.47;;;;;;;9.50;100.00;103374.56;4998216;28;20041;-71
2021/12/16 02:39:06;;;;;;;156.68;57.80;;;;;;;9.44;100.00;103372.78;4982743;28;20314;-71
2021/12/16 02:41:31;;;;;;;166.18;58.13;;;;;;;9.45;100.00;103371.72;5000479;28;20107;-71
2021/12/16 02:44:24;;;;;;;174.43;58.33;;;;;;;9.48;100.00;103376.72;5001403;28;20045;-71
2021/12/16 02:49:44;;;;;;;156.63;58.10;;;;;;;9.48;100.00;103379.44;5000484;28;20108;-71
2021/12/16 02:52:10;;;;;;;179.25;60.47;;;;;;;9.49;100.00;103378.38;5001734;28;20056;-70
2021/12/16 02:54:36;;;;;;;162.02;62.35;;;;;;;9.42;100.00;103374.91;5001712;28;20048;-71
2021/12/16 02:57:02;;;;;;;159.85;59.63;;;;;;;9.46;100.00;103367.94;5001402;28;20478;-72
2021/12/16 02:59:30;;;;;;;163.80;56.88;;;;;;;9.48;100.00;103373.13;4983092;28;20042;-72
2021/12/16 03:02:05;;;;;;;168.88;63.35;;;;;;;9.34;100.00;103366.25;4983376;28;20044;-72
2021/12/16 03:04:30;;;;;;;170.60;61.28;;;;;;;9.27;100.00;103366.34;4983210;28;20037;-72
2021/12/16 03:06:59;;;;;;;157.02;58.58;;;;;;;9.12;100.00;103372.22;5001866;28;20480;-71
2021/12/16 03:10:03;;;;;;;168.38;58.85;;;;;;;9.20;100.00;103381.97;5001225;28;20081;-71
2021/12/16 03:15:04;;;;;;;169.88;57.05;;;;;;;9.05;100.00;103366.88;5000639;28;20038;-71
2021/12/16 03:17:42;;;;;;;169.70;58.90;;;;;;;9.00;100.00;103371.34;4982688;28;20038;-72
2021/12/16 03:20:21;;;;;;;167.13;59.40;;;;;;;9.10;100.00;103366.16;4983423;28;20124;-72
2021/12/16 03:23:09;;;;;;;155.80;56.38;;;;;;;9.15;100.00;103376.38;4982408;28;20123;-71
2021/12/16 03:33:57;;;;;;;154.73;54.78;;;;;;;9.23;100.00;103384.22;4982392;28;20049;-72
2021/12/16 03:38:54;;;;;;;163.13;57.78;;;;;;;8.99;100.00;103383.31;5000364;28;20920;-71
2021/12/16 03:41:20;;;;;;;175.80;59.67;;;;;;;9.08;100.00;103390.09;4982934;28;20192;-71
2021/12/16 03:43:49;;;;;;;181.98;61.45;;;;;;;9.17;100.00;103385.97;4982975;28;20046;-71
2021/12/16 03:46:26;;;;;;;181.23;60.65;;;;;;;9.09;100.00;103382.75;5000664;28;20367;-71
2021/12/16 03:49:18;;;;;;;190.60;64.13;;;;;;;9.13;100.00;103383.94;4983196;28;20026;-71
2021/12/16 03:51:55;;;;;;;165.30;59.53;;;;;;;9.15;100.00;103398.16;4984354;28;20499;-70
2021/12/16 03:54:25;;;;;;;197.00;61.97;;;;;;;9.17;100.00;103396.88;4983544;28;20137;-71
2021/12/16 03:56:57;;;;;;;193.85;62.30;;;;;;;9.12;100.00;103404.88;4985654;28;20469;-72
2021/12/16 03:59:28;;;;;;;184.40;63.92;;;;;;;9.10;100.00;103400.72;4985639;28;20402;-71
2021/12/16 04:02:25;;;;;;;183.45;61.00;;;;;;;9.15;100.00;103415.31;4984305;28;20052;-71
2021/12/16 04:04:53;;;;;;;192.88;62.38;;;;;;;9.11;100.00;103413.31;4985295;28;20038;-72
2021/12/16 04:07:25;;;;;;;172.38;60.80;;;;;;;9.16;100.00;103405.25;4985706;28;20076;-71
2021/12/16 04:10:35;;;;;;;172.32;58.10;;;;;;;9.12;100.00;103404.88;4988205;28;20045;-72
2021/12/16 04:13:07;;;;;;;180.25;57.63;;;;;;;9.13;100.00;103403.00;4987058;28;20073;-71
2021/12/16 04:15:33;;;;;;;175.73;60.95;;;;;;;9.01;100.00;103398.34;4986505;28;20045;-71
2021/12/16 04:17:59;;;;;;;176.05;61.53;;;;;;;9.05;100.00;103399.53;5005017;28;20077;-71
2021/12/16 04:20:26;;;;;;;187.45;61.05;;;;;;;9.04;100.00;103408.75;4987395;28;20404;-71
2021/12/16 04:22:53;;;;;;;187.15;60.10;;;;;;;9.01;100.00;103403.78;4987168;28;20045;-72
2021/12/16 04:25:23;;;;;;;182.60;58.92;;;;;;;8.95;100.00;103391.09;4987047;28;20125;-71
2021/12/16 04:27:54;;;;;;;183.70;58.33;;;;;;;8.90;100.00;103390.97;4987074;28;20551;-71
2021/12/16 04:30:21;;;;;;;190.80;61.15;;;;;;;8.90;100.00;103385.53;4986800;28;20072;-71
2021/12/16 04:32:48;;;;;;;192.35;60.05;;;;;;;8.98;100.00;103390.63;4988266;28;20044;-71
2021/12/16 04:35:15;;;;;;;198.70;60.63;;;;;;;8.88;100.00;103393.09;4987854;28;20092;-70
2021/12/16 04:37:45;;;;;;;168.52;56.53;;;;;;;8.96;100.00;103398.22;4988100;28;20038;-72
2021/12/16 04:40:13;;;;;;;162.05;56.15;;;;;;;8.92;100.00;103405.16;5003840;28;20365;-72
2021/12/16 04:42:44;;;;;;;185.93;59.45;;;;;;;8.94;100.00;103411.22;5011638;28;20376;-71
2021/12/16 04:45:14;;;;;;;192.18;58.90;;;;;;;8.93;100.00;103411.44;5026140;28;20052;-71
2021/12/16 04:47:41;;;;;;;175.80;57.30;;;;;;;8.98;100.00;103415.13;5006827;28;20044;-71
2021/12/16 04:50:09;;;;;;;171.07;57.75;;;;;;;8.99;100.00;103413.25;4972789;28;20111;-71
2021/12/16 04:52:35;;;;;;;172.75;56.92;;;;;;;9.07;100.00;103419.22;4987952;28;20049;-71
2021/12/16 04:55:03;;;;;;;196.20;58.58;;;;;;;9.10;100.00;103425.22;4986194;28;20042;-70
2021/12/16 04:57:29;;;;;;;184.82;58.95;;;;;;;9.03;100.00;103428.88;5005361;28;20103;-71
2021/12/16 04:59:56;;;;;;;192.00;60.90;;;;;;;9.01;100.00;103424.72;4992569;28;20473;-71
2021/12/16 05:02:23;;;;;;;194.07;60.55;;;;;;;9.03;100.00;103428.06;4983374;28;20033;-71
2021/12/16 05:05:06;;;;;;;167.88;56.70;;;;;;;9.02;100.00;103432.66;5000637;28;20037;-71
2021/12/16 05:07:33;;;;;;;191.95;58.70;;;;;;;9.02;100.00;103427.22;4982425;28;20049;-71
2021/12/16 05:10:27;;;;;;;190.82;58.72;;;;;;;9.03;100.00;103436.22;4986593;28;20234;-72
2021/12/16 05:13:15;;;;;;;192.18;58.50;;;;;;;9.03;100.00;103428.06;4981976;28;20058;-72
2021/12/16 05:15:42;;;;;;;187.43;58.97;;;;;;;9.07;100.00;103424.66;4998698;28;20381;-71
2021/12/16 05:18:12;;;;;;;189.98;58.67;;;;;;;8.97;100.00;103415.38;4981600;28;20033;-71
2021/12/16 05:20:46;;;;;;;187.02;58.75;;;;;;;9.00;100.00;103433.97;4999391;28;20074;-72
2021/12/16 05:28:45;;;;;;;190.07;57.65;;;;;;;9.01;100.00;103427.44;4968043;28;20084;-71
2021/12/16 05:31:12;;;;;;;178.10;57.70;;;;;;;8.94;100.00;103418.56;4997567;28;20352;-72
2021/12/16 05:33:42;;;;;;;185.38;61.47;;;;;;;8.99;100.00;103430.41;4981875;28;20153;-72
2021/12/16 05:36:08;;;;;;;177.20;57.28;;;;;;;8.89;100.00;103435.56;4985443;28;20417;-71
2021/12/16 05:38:34;;;;;;;175.35;53.42;;;;;;;8.90;100.00;103436.38;4978993;28;20037;-72
2021/12/16 05:41:01;;;;;;;184.80;58.42;;;;;;;8.81;100.00;103431.28;5003755;28;20720;-72
2021/12/16 05:43:35;;;;;;;179.18;55.28;;;;;;;8.73;100.00;103439.72;4987029;28;20077;-71
2021/12/16 05:46:02;;;;;;;183.07;56.28;;;;;;;8.77;100.00;103440.94;5005755;28;20049;-71
2021/12/16 05:48:32;;;;;;;166.77;54.38;;;;;;;8.98;100.00;103441.50;5004442;28;20060;-72
2021/12/16 05:51:03;;;;;;;159.25;51.80;;;;;;;8.94;100.00;103441.16;5004327;28;20391;-71
2021/12/16 05:53:29;;;;;;;178.98;54.90;;;;;;;8.86;100.00;103444.16;4987557;28;20500;-72
2021/12/16 05:55:57;;;;;;;163.75;52.65;;;;;;;8.94;100.00;103443.88;4988243;28;20336;-71
2021/12/16 05:58:25;;;;;;;192.30;54.92;;;;;;;8.87;100.00;103451.25;5003540;28;20375;-71
2021/12/16 06:00:59;;;;;;;182.00;54.67;;;;;;;8.83;100.00;103460.97;4993906;28;20080;-71
2021/12/16 06:03:28;;;;;;;180.45;54.45;;;;;;;8.99;100.00;103454.91;4989588;28;20068;-72
2021/12/16 06:05:54;;;;;;;179.55;54.72;;;;;;;8.86;100.00;103465.94;5000330;28;20044;-72
2021/12/16 06:08:19;;;;;;;157.55;52.80;;;;;;;8.90;100.00;103480.78;4968241;28;20042;-68
2021/12/16 06:13:38;;;;;;;170.68;53.25;;;;;;;8.78;100.00;103469.78;4994035;28;20556;-73
2021/12/16 06:29:27;;;;;;;172.57;53.95;;;;;;;8.84;100.00;103482.50;4988723;28;20377;-72
2021/12/16 06:31:53;;;;;;;186.70;53.95;;;;;;;8.83;100.00;103478.09;4990859;28;20030;-72
2021/12/16 06:34:19;;;;;;;187.55;55.30;;;;;;;8.74;100.00;103484.09;4990420;28;20802;-72
2021/12/16 06:36:44;;;;;;;193.23;56.67;;;;;;;8.71;100.00;103492.69;4984571;28;20379;-72
2021/12/16 06:39:10;;;;;;;218.75;58.15;;;;;;;8.75;100.00;103491.19;4985850;28;20470;-72
2021/12/16 06:41:39;;;;;;;205.13;57.67;;;;;;;8.75;100.00;103496.63;4978593;28;20113;-72
2021/12/16 06:44:39;;;;;;;214.00;57.58;;;;;;;8.68;100.00;103517.63;4989644;28;20042;-72
2021/12/16 06:47:10;;;;;;;201.50;54.58;;;;;;;8.75;100.00;103504.78;4980352;28;20042;-72
2021/12/16 06:49:38;;;;;;;192.20;56.30;;;;;;;8.76;100.00;103504.56;4991737;28;20542;-72
2021/12/16 06:52:06;;;;;;;205.07;54.67;;;;;;;8.72;100.00;103502.50;4999445;28;20045;-72
2021/12/16 06:54:37;;;;;;;252.48;59.58;;;;;;;8.73;100.00;103515.09;4983367;28;20038;-72
2021/12/16 06:57:20;;;;;;;229.52;55.65;;;;;;;8.69;100.00;103508.41;5000178;28;20313;-72
2021/12/16 06:59:56;;;;;;;216.60;55.47;;;;;;;8.72;100.00;103511.50;4998993;28;20141;-72
2021/12/16 07:02:45;;;;;;;200.15;52.13;;;;;;;8.76;100.00;103509.19;4994442;28;20026;-72
2021/12/16 07:05:13;;;;;;;207.52;53.17;;;;;;;8.66;100.00;103508.88;5000691;28;20037;-72
2021/12/16 07:07:39;;;;;;;213.15;55.38;;;;;;;8.77;100.00;103513.56;5018717;28;20559;-71
2021/12/16 07:10:08;;;;;;;250.70;57.83;;;;;;;8.68;100.00;103507.59;5000713;28;20293;-72
2021/12/16 07:12:37;;;;;;;194.98;51.33;;;;;;;8.74;100.00;103522.19;5000822;28;20073;-72
2021/12/16 07:15:10;;;;;;;225.07;55.58;;;;;;;8.70;100.00;103532.69;5019571;28;20080;-72
2021/12/16 07:17:37;;;;;;;229.32;58.75;;;;;;;8.95;100.00;103535.31;5015011;28;20107;-72
2021/12/16 07:20:04;;;;;;;246.52;56.50;;;;;;;8.67;100.00;103537.72;5019670;28;20045;-72
2021/12/16 07:22:29;;;;;;;207.52;55.17;;;;;;;8.69;100.00;103541.88;5000373;28;20088;-71
2021/12/16 07:24:55;;;;;;;287.52;63.20;;;;;;;8.71;100.00;103549.84;5018448;28;20045;-71
2021/12/16 07:27:20;;;;;;;209.27;54.40;;;;;;;8.70;100.00;103548.19;5019554;28;20047;-72
2021/12/16 07:29:46;;;;;;;237.00;55.33;;;;;;;8.66;100.00;103552.38;5017587;28;20206;-72
2021/12/16 07:32:11;;;;;;;258.77;56.53;;;;;;;8.69;100.00;103557.38;5018967;28;20115;-71
2021/12/16 07:34:37;;;;;;;250.45;59.58;;;;;;;8.71;100.00;103552.56;5000188;28;20045;-74
2021/12/16 07:37:06;;;;;;;275.55;61.08;;;;;;;8.83;100.00;103556.19;5018175;28;20045;-72
2021/12/16 07:39:38;;;;;;;210.88;52.80;;;;;;;8.79;100.00;103574.03;5018295;28;20047;-72
2021/12/16 07:42:05;;;;;;;207.20;53.88;;;;;;;8.64;100.00;103570.81;5000743;28;20459;-72
2021/12/16 07:44:32;;;;;;;247.02;57.22;;;;;;;8.65;100.00;103575.22;5018498;28;20136;-71
2021/12/16 07:47:02;;;;;;;230.60;53.92;;;;;;;8.72;100.00;103584.97;5018060;28;20403;-72
2021/12/16 07:49:31;;;;;;;226.35;53.65;;;;;;;8.67;100.00;103589.41;5006309;28;20053;-71
2021/12/16 07:51:59;;;;;;;206.45;52.17;;;;;;;8.82;100.00;103592.63;4980273;28;20046;-72
2021/12/16 07:54:25;;;;;;;246.90;58.03;;;;;;;8.80;100.00;103597.44;4998732;28;20073;-72
2021/12/16 07:56:54;;;;;;;287.13;60.95;;;;;;;8.81;100.00;103615.44;4982163;28;20042;-72
2021/12/16 07:59:20;;;;;;;220.60;51.97;;;;;;;8.76;100.00;103615.28;4980600;28;20128;-71
2021/12/16 08:01:46;;;;;;;277.73;59.28;;;;;;;8.90;100.00;103614.13;4998950;28;20026;-72
2021/12/16 08:04:21;;;;;;;189.13;54.85;;;;;;;8.89;100.00;103617.88;5000294;28;20046;-71
2021/12/16 08:06:52;;;;;;;278.88;59.85;;;;;;;8.85;100.00;103611.22;4965976;28;20073;-71
2021/12/16 08:09:18;;;;;;;298.75;61.38;;;;;;;8.68;100.00;103610.13;4999575;28;20075;-71
2021/12/16 08:11:45;;;;;;;216.98;56.00;;;;;;;8.69;100.00;103614.50;4992552;28;20144;-71
2021/12/16 08:14:11;;;;;;;293.67;61.00;;;;;;;8.68;100.00;103610.97;4980324;28;20042;-72
2021/12/16 08:16:37;;;;;;;191.15;53.03;;;;;;;8.75;100.00;103610.88;4979716;28;20539;-72
2021/12/16 08:19:05;;;;;;;200.30;51.83;;;;;;;8.83;100.00;103618.78;4979019;28;20046;-72
2021/12/16 08:21:31;;;;;;;263.08;54.75;;;;;;;8.83;100.00;103619.59;4979622;28;20385;-72
2021/12/16 08:23:59;;;;;;;281.70;57.38;;;;;;;8.74;100.00;103614.69;4981250;28;20042;-72
2021/12/16 08:26:25;;;;;;;223.63;51.40;;;;;;;8.83;100.00;103627.75;4980515;28;20506;-71
2021/12/16 08:28:50;;;;;;;263.25;55.13;;;;;;;8.86;100.00;103623.75;4981179;28;20133;-72
2021/12/16 08:31:16;;;;;;;230.57;53.53;;;;;;;8.72;100.00;103630.38;4980919;28;20339;-72
2021/12/16 08:33:41;;;;;;;249.57;57.65;;;;;;;8.72;100.00;103630.38;4980674;28;20451;-71
2021/12/16 08:36:08;;;;;;;194.68;48.92;;;;;;;8.79;100.00;103636.63;4962559;28;20076;-72
2021/12/16 08:38:37;;;;;;;256.45;54.92;;;;;;;8.78;100.00;103640.38;4980145;28;20052;-71
2021/12/16 08:41:09;;;;;;;292.33;56.13;;;;;;;8.85;100.00;103643.88;4979669;28;20046;-72
2021/12/16 08:43:39;;;;;;;249.13;53.70;;;;;;;9.00;100.00;103652.53;5000543;28;20041;-71
2021/12/16 08:46:05;;;;;;;245.50;50.15;;;;;;;8.93;100.00;103646.31;4981822;28;20125;-72
2021/12/16 08:48:31;;;;;;;238.35;49.15;;;;;;;9.03;100.00;103646.63;4999824;28;20251;-71
2021/12/16 08:50:56;;;;;;;227.48;49.65;;;;;;;8.97;100.00;103647.53;4999687;28;20038;-72
2021/12/16 08:53:23;;;;;;;247.88;51.90;;;;;;;9.01;100.00;103646.00;4999472;28;20081;-71
2021/12/16 08:55:50;;;;;;;229.50;48.15;;;;;;;9.04;100.00;103652.91;4981388;28;20424;-72
2021/12/16 08:58:16;;;;;;;188.10;47.40;;;;;;;9.07;100.00;103656.03;4999085;28;20080;-72
2021/12/16 09:00:47;;;;;;;262.50;54.13;;;;;;;9.00;100.00;103649.81;4998582;28;20128;-71
2021/12/16 09:03:13;;;;;;;234.80;50.67;;;;;;;9.01;100.00;103659.63;4983883;28;20050;-71
2021/12/16 09:05:39;;;;;;;276.80;52.33;;;;;;;9.07;100.00;103668.78;4963065;28;20118;-73
2021/12/16 09:08:05;;;;;;;267.88;51.08;;;;;;;9.01;100.00;103659.63;4981328;28;20053;-73
2021/12/16 09:10:36;;;;;;;190.85;45.53;;;;;;;9.05;100.00;103660.84;4981661;28;20038;-72
2021/12/16 09:13:05;;;;;;;181.05;46.65;;;;;;;9.10;100.00;103659.34;5001664;28;20388;-71
2021/12/16 09:15:33;;;;;;;179.65;44.13;;;;;;;9.11;100.00;103661.03;4990117;28;20071;-72
2021/12/16 09:17:58;;;;;;;229.65;45.63;;;;;;;8.87;100.00;103662.69;4985396;28;20538;-72
2021/12/16 09:20:24;;;;;;;192.10;45.35;;;;;;;8.92;100.00;103671.84;4988851;28;20098;-72
2021/12/16 09:22:50;;;;;;;155.88;42.00;;;;;;;8.99;100.00;103678.09;4988540;28;20448;-71
2021/12/16 09:25:16;;;;;;;176.13;42.58;;;;;;;8.99;100.00;103669.91;4966786;28;20042;-72
2021/12/16 09:27:42;;;;;;;184.68;45.00;;;;;;;8.96;100.00;103673.09;4983948;28;20307;-72
2021/12/16 09:30:12;;;;;;;172.88;42.83;;;;;;;8.96;100.00;103667.66;5001742;28;20074;-72
2021/12/16 09:32:37;;;;;;;164.60;39.95;;;;;;;8.96;100.00;103674.94;4999772;28;20034;-72
2021/12/16 09:35:06;;;;;;;203.30;43.50;;;;;;;8.87;100.00;103677.13;5005354;28;20398;-72
2021/12/16 09:37:31;;;;;;;168.52;41.60;;;;;;;8.95;100.00;103676.84;5007645;28;20417;-72
2021/12/16 09:39:57;;;;;;;158.20;40.00;;;;;;;8.99;100.00;103683.53;5002721;28;20048;-72
2021/12/16 09:42:26;;;;;;;132.40;37.90;;;;;;;9.05;100.00;103687.25;4979834;28;20042;-71
2021/12/16 09:44:53;;;;;;;190.07;42.50;;;;;;;9.13;100.00;103691.56;4980046;28;20030;-71
2021/12/16 09:47:21;;;;;;;123.75;36.75;;;;;;;9.24;100.00;103693.53;5003131;28;20292;-71
2021/12/16 09:49:48;;;;;;;149.63;39.60;;;;;;;9.01;100.00;103695.00;5004536;28;20495;-72
2021/12/16 09:52:13;;;;;;;171.82;39.90;;;;;;;8.88;100.00;103691.59;4981848;28;20045;-71
2021/12/16 09:54:42;;;;;;;148.73;38.35;;;;;;;9.06;100.00;103697.91;5005338;28;20407;-72
2021/12/16 09:57:09;;;;;;;147.02;38.67;;;;;;;9.33;100.00;103700.34;4996289;28;20038;-72
2021/12/16 09:59:35;;;;;;;190.93;40.33;;;;;;;9.05;100.00;103692.69;4997867;28;20045;-73
2021/12/16 10:02:07;;;;;;;134.82;36.05;;;;;;;9.24;100.00;103709.88;5004561;28;20042;-70
2021/12/16 10:04:33;;;;;;;143.13;40.38;;;;;;;9.18;100.00;103702.63;5002623;28;20041;-72
2021/12/16 10:07:14;;;;;;;133.20;38.42;;;;;;;9.20;100.00;103697.78;5000220;28;20535;-71
2021/12/16 10:09:42;;;;;;;141.63;36.22;;;;;;;9.06;100.00;103695.19;4990028;28;20441;-72
2021/12/16 10:12:14;;;;;;;125.05;35.42;;;;;;;9.37;100.00;103700.75;4979611;28;20077;-72
2021/12/16 10:15:02;;;;;;;127.05;37.95;;;;;;;9.42;100.00;103701.72;4998432;28;20111;-72
2021/12/16 10:17:33;;;;;;;153.60;40.47;;;;;;;9.33;100.00;103700.34;4995254;28;20152;-71
2021/12/16 10:20:12;;;;;;;137.40;40.28;;;;;;;9.46;100.00;103697.50;4979907;28;20034;-72
2021/12/16 10:22:41;;;;;;;140.60;40.55;;;;;;;9.40;100.00;103695.69;4996854;28;20090;-71
2021/12/16 10:25:17;;;;;;;130.77;38.05;;;;;;;9.18;100.00;103702.63;4997201;28;20044;-72
2021/12/16 10:28:16;;;;;;;105.13;35.03;;;;;;;9.32;100.00;103698.72;4992949;28;20127;-72
2021/12/16 10:31:03;;;;;;;120.30;37.25;;;;;;;9.51;100.00;103697.66;5000787;28;20038;-72
2021/12/16 10:33:39;;;;;;;148.98;39.25;;;;;;;9.29;100.00;103696.44;4994517;28;20042;-72
2021/12/16 10:36:07;;;;;;;123.65;37.33;;;;;;;9.38;100.00;103700.53;4996986;28;20502;-72
2021/12/16 10:38:40;;;;;;;158.77;40.92;;;;;;;9.45;100.00;103703.16;5002501;28;20041;-72
2021/12/16 10:41:08;;;;;;;141.40;39.55;;;;;;;9.32;100.00;103695.97;5000083;28;20200;-72
2021/12/16 10:43:41;;;;;;;104.63;33.67;;;;;;;9.29;100.00;103701.88;4997886;28;20064;-72
2021/12/16 10:46:20;;;;;;;99.90;32.55;;;;;;;9.39;100.00;103696.72;4979703;28;20516;-72
2021/12/16 10:48:50;;;;;;;109.47;36.05;;;;;;;9.46;100.00;103702.97;4994862;28;20380;-72
2021/12/16 10:51:27;;;;;;;115.43;36.08;;;;;;;9.38;100.00;103697.78;4993078;28;20042;-71
2021/12/16 10:54:17;;;;;;;126.68;36.25;;;;;;;9.37;100.00;103701.59;4975538;28;20042;-71
2021/12/16 10:56:53;;;;;;;120.97;37.22;;;;;;;9.52;100.00;103703.94;4997074;28;20025;-71
2021/12/16 10:59:32;;;;;;;133.63;37.50;;;;;;;9.38;100.00;103697.78;4990985;28;20360;-72
2021/12/16 11:02:02;;;;;;;107.13;34.63;;;;;;;9.29;100.00;103694.53;4995916;28;20081;-71
2021/12/16 11:04:47;;;;;;;102.80;33.45;;;;;;;9.19;100.00;103687.94;4997384;28;20376;-72
2021/12/16 11:07:28;;;;;;;110.15;35.35;;;;;;;9.26;100.00;103688.72;4998107;28;20049;-71
2021/12/16 11:10:18;;;;;;;108.53;34.00;;;;;;;9.46;100.00;103689.34;4990368;28;20042;-72
2021/12/16 11:12:56;;;;;;;108.88;37.83;;;;;;;9.33;100.00;103688.63;4999527;28;20056;-71
2021/12/16 11:15:29;;;;;;;97.55;33.90;;;;;;;9.46;100.00;103688.50;4978841;28;20112;-72
2021/12/16 11:18:20;;;;;;;112.75;34.40;;;;;;;9.46;100.00;103683.88;5004463;28;20399;-72
2021/12/16 11:21:02;;;;;;;102.15;33.63;;;;;;;9.19;100.00;103687.94;4996807;28;20114;-72
2021/12/16 11:23:40;;;;;;;92.20;31.65;;;;;;;9.30;100.00;103692.63;4998824;28;20038;-71
2021/12/16 11:26:09;;;;;;;110.18;32.75;;;;;;;9.36;100.00;103693.63;4997860;28;20399;-72
2021/12/16 11:28:41;;;;;;;108.78;32.33;;;;;;;9.37;100.00;103701.59;4999682;28;20150;-72
2021/12/16 11:31:17;;;;;;;86.90;31.02;;;;;;;9.26;100.00;103694.16;4999724;28;20104;-71
2021/12/16 11:33:52;;;;;;;103.88;33.00;;;;;;;9.21;100.00;103700.25;4987921;28;20053;-71
2021/12/16 11:36:21;;;;;;;91.53;30.25;;;;;;;9.15;100.00;103697.63;4977259;28;20049;-71
2021/12/16 11:38:59;;;;;;;73.65;29.65;;;;;;;9.25;100.00;103706.09;4977137;28;20038;-74
2021/12/16 11:41:44;;;;;;;130.07;32.40;;;;;;;9.07;100.00;103702.31;4978101;28;20431;-71
2021/12/16 11:44:21;;;;;;;119.05;34.35;;;;;;;9.06;100.00;103703.34;4977751;28;20850;-72
2021/12/16 11:47:05;;;;;;;89.57;32.20;;;;;;;9.37;100.00;103701.59;4977831;28;20054;-71
2021/12/16 11:49:43;;;;;;;88.72;32.45;;;;;;;9.29;100.00;103705.44;4996851;28;20818;-72
2021/12/16 11:52:25;;;;;;;80.68;32.65;;;;;;;9.30;100.00;103698.91;4991646;28;20192;-72
2021/12/16 11:55:08;;;;;;;90.60;33.08;;;;;;;9.21;100.00;103703.00;4991153;28;20057;-71
2021/12/16 11:57:42;;;;;;;106.32;31.83;;;;;;;9.14;100.00;103712.28;4995425;28;20305;-71
2021/12/16 12:00:18;;;;;;;82.68;33.00;;;;;;;9.36;100.00;103709.97;4996815;28;20188;-72
2021/12/16 12:03:08;;;;;;;96.07;34.05;;;;;;;9.31;100.00;103707.94;4996520;28;20050;-71
2021/12/16 12:05:50;;;;;;;94.40;34.53;;;;;;;9.20;100.00;103701.34;4996982;28;20315;-71
2021/12/16 12:08:20;;;;;;;99.32;34.42;;;;;;;9.28;100.00;103708.41;4996527;28;20046;-71
2021/12/16 12:10:53;;;;;;;100.80;35.10;;;;;;;9.33;100.00;103711.25;4997474;28;20537;-72
2021/12/16 12:13:26;;;;;;;107.88;33.38;;;;;;;9.47;100.00;103718.22;4999383;28;20764;-72
2021/12/16 12:15:51;;;;;;;100.95;33.13;;;;;;;9.38;100.00;103724.22;4997171;28;20044;-72
2021/12/16 12:18:46;;;;;;;93.60;34.03;;;;;;;9.62;100.00;103717.03;4990729;28;20470;-72
2021/12/16 12:21:20;;;;;;;92.25;32.63;;;;;;;9.72;100.00;103710.00;4998642;28;20049;-72
2021/12/16 12:23:48;;;;;;;112.63;35.75;;;;;;;9.47;100.00;103712.78;4992054;28;20524;-71
2021/12/16 12:26:19;;;;;;;84.50;31.98;;;;;;;9.47;100.00;103711.97;4994488;28;20224;-72
2021/12/16 12:28:47;;;;;;;80.63;31.77;;;;;;;9.61;100.00;103715.38;4992230;28;20034;-72
2021/12/16 12:31:14;;;;;;;101.47;34.22;;;;;;;9.64;100.00;103713.03;4993586;28;20045;-72
2021/12/16 12:33:39;;;;;;;94.75;34.05;;;;;;;9.58;100.00;103710.38;4998255;28;20067;-71
2021/12/16 12:36:07;;;;;;;111.97;35.35;;;;;;;9.24;100.00;103709.88;4993338;28;20046;-72
2021/12/16 12:38:34;;;;;;;94.18;35.58;;;;;;;9.56;100.00;103709.78;4987772;28;20053;-71
2021/12/16 12:40:59;;;;;;;113.85;36.50;;;;;;;9.55;100.00;103716.28;4993113;28;20077;-72
2021/12/16 12:43:25;;;;;;;105.43;34.58;;;;;;;9.60;100.00;103722.72;4998516;28;20034;-71
2021/12/16 12:45:50;;;;;;;111.80;34.28;;;;;;;9.55;100.00;103719.00;4995697;28;20137;-72
2021/12/16 12:48:19;;;;;;;95.55;33.67;;;;;;;9.40;100.00;103722.94;4993298;28;20054;-72
2021/12/16 12:50:48;;;;;;;86.97;33.92;;;;;;;9.64;100.00;103720.38;4995204;28;20160;-71
2021/12/16 12:53:22;;;;;;;98.00;32.20;;;;;;;9.71;100.00;103723.84;4992104;28;20475;-71
2021/12/16 12:55:50;;;;;;;140.93;34.78;;;;;;;9.47;100.00;103729.13;4987581;28;20212;-72
2021/12/16 12:58:20;;;;;;;87.22;33.15;;;;;;;9.62;100.00;103731.47;4994033;28;20100;-71
2021/12/16 13:00:50;;;;;;;105.13;34.20;;;;;;;9.39;100.00;103721.25;4995092;28;20048;-71
2021/12/16 13:03:27;;;;;;;93.00;34.22;;;;;;;9.65;100.00;103720.13;4994959;28;20473;-71
2021/12/16 13:06:14;;;;;;;132.82;36.15;;;;;;;9.35;100.00;103711.88;4995447;28;20465;-71
2021/12/16 13:08:47;;;;;;;72.47;30.58;;;;;;;9.47;100.00;103718.22;4994534;28;20132;-71
2021/12/16 13:11:16;;;;;;;84.40;31.70;;;;;;;9.58;100.00;103724.84;4993799;28;20042;-71
2021/12/16 13:14:23;;;;;;;89.85;31.30;;;;;;;9.82;100.00;103735.88;5001206;28;20716;-72
2021/12/16 13:28:38;;;;;;;87.05;34.38;;;;;;;9.41;100.00;103729.19;4993146;28;20451;-72
2021/12/16 13:31:23;;;;;;;76.47;31.10;;;;;;;9.44;100.00;103726.84;4991945;28;20041;-71
2021/12/16 13:33:55;;;;;;;80.32;35.13;;;;;;;9.28;100.00;103727.44;4992550;28;20335;-72
2021/12/16 13:36:40;;;;;;;75.22;32.47;;;;;;;9.44;100.00;103718.69;4997131;28;20406;-74
2021/12/16 13:39:13;;;;;;;84.18;33.80;;;;;;;9.23;100.00;103721.84;4993900;28;20061;-71
2021/12/16 13:42:02;;;;;;;74.72;32.92;;;;;;;9.29;100.00;103720.94;4973477;28;20041;-71
2021/12/16 13:44:50;;;;;;;83.60;34.03;;;;;;;9.32;100.00;103720.50;4993808;28;20049;-73
2021/12/16 13:59:32;;;;;;;83.05;32.90;;;;;;;9.34;100.00;103723.81;4992835;28;20354;-71
2021/12/16 14:01:57;;;;;;;99.43;36.42;;;;;;;9.26;100.00;103726.84;4973030;28;20045;-72